createdAt,value
2022-11-19T00:01:28.725Z,97919.78
2022-11-19T00:03:55.734Z,97929.16
2022-11-19T00:06:25.626Z,97930.84
2022-11-19T00:08:52.813Z,97932.84
2022-11-19T00:11:42.464Z,97935.16
2022-11-19T00:14:12.308Z,97940.34
2022-11-19T00:16:39.107Z,97940.19
2022-11-19T00:19:05.803Z,97944.31
2022-11-19T00:21:33.017Z,97940.72
2022-11-19T00:23:59.783Z,97931.75
2022-11-19T00:26:26.407Z,97938.13
2022-11-19T00:28:54.400Z,97941.28
2022-11-19T00:31:21.306Z,97943.50
2022-11-19T00:33:50.621Z,97948.78
2022-11-19T00:36:17.736Z,97938.06
2022-11-19T00:38:44.519Z,97954.88
2022-11-19T00:41:11.888Z,97945.75
2022-11-19T00:43:50.328Z,97949.69
2022-11-19T00:46:22.783Z,97966.53
2022-11-19T00:48:51.944Z,97965.78
2022-11-19T00:51:20.658Z,97961.72
2022-11-19T00:53:47.507Z,97961.31
2022-11-19T00:56:17.760Z,97960.50
2022-11-19T00:58:45.604Z,97962.00
2022-11-19T01:01:13.694Z,97962.81
2022-11-19T01:03:41.309Z,97967.13
2022-11-19T01:06:19.661Z,97964.31
2022-11-19T01:08:48.595Z,97964.31
2022-11-19T01:11:25.949Z,97975.94
2022-11-19T01:13:53.647Z,97968.78
2022-11-19T01:16:33.888Z,97976.84
2022-11-19T01:19:01.107Z,97968.00
2022-11-19T01:21:31.655Z,97977.00
2022-11-19T01:23:58.940Z,97978.50
2022-11-19T01:26:26.860Z,97988.00
2022-11-19T01:28:54.804Z,97988.13
2022-11-19T01:31:27.646Z,97981.50
2022-11-19T01:33:54.865Z,97989.31
2022-11-19T01:36:27.896Z,97991.56
2022-11-19T01:38:54.945Z,97994.22
2022-11-19T01:41:28.504Z,97995.56
2022-11-19T01:43:59.180Z,97993.41
2022-11-19T01:46:32.143Z,97990.69
2022-11-19T01:49:14.236Z,97988.41
2022-11-19T01:51:49.805Z,97992.59
2022-11-19T01:54:39.254Z,97991.03
2022-11-19T01:57:12.864Z,98000.03
2022-11-19T01:59:41.435Z,97994.25
2022-11-19T02:02:08.130Z,97992.03
2022-11-19T02:04:35.809Z,97993.34
2022-11-19T02:07:02.931Z,97995.53
2022-11-19T02:09:30.453Z,97998.63
2022-11-19T02:12:50.126Z,98000.16
2022-11-19T02:15:45.277Z,98003.69
2022-11-19T02:18:34.424Z,98000.41
2022-11-19T02:21:32.256Z,98003.75
2022-11-19T02:24:40.346Z,98009.03
2022-11-19T02:27:40.082Z,98012.03
2022-11-19T02:30:11.606Z,98003.41
2022-11-19T02:32:56.888Z,98015.31
2022-11-19T02:35:58.777Z,98011.88
2022-11-19T02:38:42.499Z,98017.25
2022-11-19T02:41:33.818Z,98009.03
2022-11-19T02:44:43.296Z,98008.84
2022-11-19T02:47:33.394Z,98010.47
2022-11-19T02:50:16.536Z,98020.09
2022-11-19T02:52:44.808Z,98022.28
2022-11-19T02:55:17.744Z,98022.56
2022-11-19T02:57:52.694Z,98028.66
2022-11-19T03:00:38.029Z,98029.19
2022-11-19T03:03:38.977Z,98031.84
2022-11-19T03:06:26.393Z,98027.06
2022-11-19T03:08:53.223Z,98026.19
2022-11-19T03:11:23.397Z,98036.72
2022-11-19T03:14:26.896Z,98031.88
2022-11-19T03:17:07.290Z,98032.03
2022-11-19T03:19:46.423Z,98032.41
2022-11-19T03:22:24.926Z,98034.41
2022-11-19T03:25:07.021Z,98033.41
2022-11-19T03:27:49.193Z,98035.28
2022-11-19T03:30:18.399Z,98032.13
2022-11-19T03:32:51.556Z,98033.91
2022-11-19T03:35:24.765Z,98031.19
2022-11-19T03:37:56.128Z,98038.31
2022-11-19T03:40:24.674Z,98037.13
2022-11-19T03:43:05.244Z,98035.97
2022-11-19T03:45:39.980Z,98038.00
2022-11-19T03:48:07.456Z,98038.50
2022-11-19T03:50:58.271Z,98042.13
2022-11-19T03:53:25.792Z,98043.09
2022-11-19T03:56:02.300Z,98042.06
2022-11-19T03:58:29.766Z,98045.03
2022-11-19T04:00:56.371Z,98047.09
2022-11-19T04:03:23.006Z,98045.25
2022-11-19T04:05:49.601Z,98052.31
2022-11-19T04:08:16.166Z,98054.06
2022-11-19T04:10:42.709Z,98055.53
2022-11-19T04:13:11.810Z,98060.50
2022-11-19T04:15:38.368Z,98059.56
2022-11-19T04:18:05.043Z,98058.53
2022-11-19T04:20:31.598Z,98061.06
2022-11-19T04:22:58.177Z,98060.41
2022-11-19T04:25:24.865Z,98070.28
2022-11-19T04:27:51.560Z,98062.66
2022-11-19T04:30:20.841Z,98065.16
2022-11-19T04:32:47.408Z,98064.88
2022-11-19T04:35:14.105Z,98065.19
2022-11-19T04:37:40.693Z,98067.25
2022-11-19T04:40:08.294Z,98069.16
2022-11-19T04:42:34.849Z,98075.50
2022-11-19T04:45:01.496Z,98082.34
2022-11-19T04:47:28.085Z,98079.69
2022-11-19T04:49:54.642Z,98088.34
2022-11-19T04:52:21.224Z,98093.84
2022-11-19T04:54:47.864Z,98086.50
2022-11-19T04:57:14.748Z,98081.97
2022-11-19T04:59:41.369Z,98083.75
2022-11-19T05:02:08.857Z,98080.28
2022-11-19T05:04:35.412Z,98090.06
2022-11-19T05:07:02.286Z,98087.97
2022-11-19T05:09:28.865Z,98087.63
2022-11-19T05:11:55.486Z,98089.56
2022-11-19T05:14:23.762Z,98095.47
2022-11-19T05:16:53.884Z,98104.50
2022-11-19T05:19:20.912Z,98095.16
2022-11-19T05:21:47.709Z,98098.16
2022-11-19T05:24:14.278Z,98092.72
2022-11-19T05:26:40.944Z,98097.28
2022-11-19T05:29:07.490Z,98097.28
2022-11-19T05:31:34.117Z,98096.19
2022-11-19T05:34:00.664Z,98105.13
2022-11-19T05:36:27.221Z,98104.88
2022-11-19T05:38:53.825Z,98101.69
2022-11-19T05:41:20.456Z,98101.88
2022-11-19T05:43:47.025Z,98101.16
2022-11-19T05:46:13.586Z,98099.09
2022-11-19T05:48:40.289Z,98104.59
2022-11-19T05:51:06.890Z,98104.59
2022-11-19T05:53:33.508Z,98102.22
2022-11-19T05:56:00.101Z,98109.19
2022-11-19T05:58:26.693Z,98112.78
2022-11-19T06:00:56.381Z,98122.34
2022-11-19T06:03:23.050Z,98120.72
2022-11-19T06:05:49.669Z,98123.38
2022-11-19T06:08:16.293Z,98129.94
2022-11-19T06:10:42.892Z,98130.31
2022-11-19T06:13:09.469Z,98130.66
2022-11-19T06:15:36.054Z,98138.84
2022-11-19T06:18:02.869Z,98138.91
2022-11-19T06:20:30.084Z,98134.81
2022-11-19T06:22:57.757Z,98135.06
2022-11-19T06:25:24.384Z,98134.34
2022-11-19T06:27:50.961Z,98141.16
2022-11-19T06:30:17.625Z,98141.94
2022-11-19T06:32:44.271Z,98140.13
2022-11-19T06:35:14.145Z,98146.38
2022-11-19T06:37:41.001Z,98152.25
2022-11-19T06:40:08.535Z,98146.50
2022-11-19T06:42:37.989Z,98142.47
2022-11-19T06:45:13.621Z,98149.31
2022-11-19T06:47:41.470Z,98149.31
2022-11-19T06:50:10.466Z,98152.88
2022-11-19T06:52:37.237Z,98156.56
2022-11-19T06:55:04.676Z,98157.25
2022-11-19T06:57:31.261Z,98149.88
2022-11-19T07:00:00.868Z,98153.63
2022-11-19T07:02:27.572Z,98156.72
2022-11-19T07:04:54.159Z,98167.22
2022-11-19T07:07:21.072Z,98167.06
2022-11-19T07:09:47.698Z,98160.72
2022-11-19T07:12:14.298Z,98161.00
2022-11-19T07:14:40.877Z,98161.88
2022-11-19T07:17:07.506Z,98179.28
2022-11-19T07:19:34.103Z,98183.84
2022-11-19T07:22:00.834Z,98192.84
2022-11-19T07:24:27.403Z,98187.72
2022-11-19T07:26:55.868Z,98194.09
2022-11-19T07:29:22.799Z,98200.03
2022-11-19T07:31:50.375Z,98192.06
2022-11-19T07:34:17.660Z,98196.06
2022-11-19T07:36:45.308Z,98191.22
2022-11-19T07:39:12.381Z,98194.84
2022-11-19T07:41:58.886Z,98203.25
2022-11-19T07:44:25.509Z,98198.59
2022-11-19T07:46:52.600Z,98186.50
2022-11-19T07:49:20.403Z,98203.47
2022-11-19T07:51:47.657Z,98199.25
2022-11-19T07:54:14.784Z,98207.97
2022-11-19T07:56:42.084Z,98203.03
2022-11-19T07:59:09.036Z,98212.69
2022-11-19T08:01:36.100Z,98210.72
2022-11-19T08:04:04.201Z,98209.97
2022-11-19T08:06:33.213Z,98212.44
2022-11-19T08:09:00.394Z,98208.50
2022-11-19T08:11:26.971Z,98208.50
2022-11-19T08:13:54.080Z,98219.75
2022-11-19T08:16:40.408Z,98211.16
2022-11-19T08:19:11.280Z,98224.53
2022-11-19T08:21:42.333Z,98225.84
2022-11-19T08:24:10.109Z,98220.19
2022-11-19T08:26:37.521Z,98223.88
2022-11-19T08:29:05.114Z,98224.94
2022-11-19T08:31:31.722Z,98228.63
2022-11-19T08:33:58.281Z,98237.31
2022-11-19T08:36:24.871Z,98231.09
2022-11-19T08:38:51.467Z,98229.22
2022-11-19T08:41:36.778Z,98237.84
2022-11-19T08:44:03.655Z,98236.59
2022-11-19T08:46:30.287Z,98232.41
2022-11-19T08:48:58.696Z,98230.91
2022-11-19T08:51:25.462Z,98240.59
2022-11-19T08:53:55.123Z,98243.28
2022-11-19T08:56:22.198Z,98238.28
2022-11-19T08:58:49.585Z,98245.59
2022-11-19T09:01:17.718Z,98250.81
2022-11-19T09:03:44.578Z,98257.84
2022-11-19T09:06:11.838Z,98251.38
2022-11-19T09:08:42.326Z,98254.00
2022-11-19T09:11:13.613Z,98257.84
2022-11-19T09:13:40.563Z,98257.00
2022-11-19T09:16:08.515Z,98263.78
2022-11-19T09:18:38.929Z,98261.44
2022-11-19T09:21:08.326Z,98261.03
2022-11-19T09:23:35.357Z,98258.28
2022-11-19T09:26:14.708Z,98271.00
2022-11-19T09:28:42.372Z,98262.63
2022-11-19T09:31:18.496Z,98265.84
2022-11-19T09:33:49.092Z,98265.59
2022-11-19T09:36:17.573Z,98267.53
2022-11-19T09:38:45.493Z,98269.94
2022-11-19T09:41:36.434Z,98281.78
2022-11-19T09:44:28.370Z,98273.50
2022-11-19T09:47:00.713Z,98282.63
2022-11-19T09:49:38.741Z,98288.44
2022-11-19T09:52:15.266Z,98283.47
2022-11-19T09:54:49.460Z,98284.41
2022-11-19T09:57:31.991Z,98294.31
2022-11-19T10:00:01.829Z,98293.06
2022-11-19T10:02:29.587Z,98288.22
2022-11-19T10:04:56.551Z,98290.28
2022-11-19T10:07:58.329Z,98291.25
2022-11-19T10:10:41.450Z,98300.59
2022-11-19T10:13:51.833Z,98299.72
2022-11-19T10:17:19.236Z,98304.16
2022-11-19T10:20:07.089Z,98309.13
2022-11-19T10:22:57.807Z,98300.66
2022-11-19T10:25:36.367Z,98302.53
2022-11-19T10:28:15.237Z,98295.66
2022-11-19T10:30:54.430Z,98301.53
2022-11-19T10:33:32.762Z,98301.31
2022-11-19T10:36:10.785Z,98306.97
2022-11-19T10:39:02.772Z,98305.06
2022-11-19T10:41:45.401Z,98303.34
2022-11-19T10:44:42.311Z,98306.84
2022-11-19T10:47:37.824Z,98309.63
2022-11-19T10:50:10.989Z,98308.88
2022-11-19T10:52:42.709Z,98310.97
2022-11-19T10:55:32.311Z,98313.16
2022-11-19T10:58:11.026Z,98310.59
2022-11-19T11:00:40.003Z,98304.25
2022-11-19T11:03:27.377Z,98303.94
2022-11-19T11:06:06.097Z,98305.25
2022-11-19T11:08:33.933Z,98301.78
2022-11-19T11:11:01.382Z,98301.00
2022-11-19T11:13:52.480Z,98298.41
2022-11-19T11:16:46.554Z,98288.69
2022-11-19T11:19:18.314Z,98276.28
2022-11-19T11:21:46.898Z,98289.09
2022-11-19T11:24:14.419Z,98289.09
2022-11-19T11:26:41.396Z,98279.72
2022-11-19T11:29:26.422Z,98281.31
2022-11-19T11:31:53.749Z,98278.41
2022-11-19T11:34:43.715Z,98283.53
2022-11-19T11:37:18.679Z,98294.94
2022-11-19T11:39:54.973Z,98271.13
2022-11-19T11:42:26.341Z,98286.72
2022-11-19T11:44:57.450Z,98284.72
2022-11-19T11:47:33.509Z,98284.81
2022-11-19T11:50:24.246Z,98287.22
2022-11-19T11:52:53.390Z,98287.78
2022-11-19T11:55:22.974Z,98290.28
2022-11-19T11:57:57.808Z,98282.94
2022-11-19T12:00:42.943Z,98286.09
2022-11-19T12:03:16.077Z,98270.97
2022-11-19T12:05:59.910Z,98283.47
2022-11-19T12:08:54.504Z,98278.13
2022-11-19T12:11:57.202Z,98273.63
2022-11-19T12:14:51.869Z,98284.03
2022-11-19T12:17:50.012Z,98285.19
2022-11-19T12:20:44.798Z,98275.69
2022-11-19T12:23:20.653Z,98277.72
2022-11-19T12:26:19.152Z,98279.59
2022-11-19T12:29:10.031Z,98284.81
2022-11-19T12:32:07.341Z,98285.59
2022-11-19T12:35:14.647Z,98290.38
2022-11-19T12:38:29.321Z,98293.22
2022-11-19T12:41:46.986Z,98287.13
2022-11-19T12:44:47.772Z,98289.69
2022-11-19T12:47:44.560Z,98295.06
2022-11-19T12:50:18.685Z,98302.75
2022-11-19T12:53:06.996Z,98308.06
2022-11-19T12:56:08.445Z,98300.19
2022-11-19T12:59:10.941Z,98297.81
2022-11-19T13:01:43.200Z,98298.31
2022-11-19T13:04:18.586Z,98288.69
2022-11-19T13:06:58.633Z,98284.53
2022-11-19T13:09:41.059Z,98278.91
2022-11-19T13:12:16.283Z,98278.00
2022-11-19T13:14:55.284Z,98267.72
2022-11-19T13:17:31.445Z,98272.19
2022-11-19T13:20:04.828Z,98277.50
2022-11-19T13:22:43.453Z,98285.59
2022-11-19T13:25:24.225Z,98279.31
2022-11-19T13:27:54.866Z,98283.88
2022-11-19T13:30:26.622Z,98282.31
2022-11-19T13:33:18.713Z,98291.00
2022-11-19T13:36:05.218Z,98296.16
2022-11-19T13:38:52.471Z,98304.22
2022-11-19T13:41:32.073Z,98304.75
2022-11-19T13:44:17.939Z,98299.91
2022-11-19T13:46:52.727Z,98292.72
2022-11-19T13:49:27.731Z,98297.44
2022-11-19T13:52:06.882Z,98287.44
2022-11-19T13:54:37.798Z,98292.41
2022-11-19T13:57:07.385Z,98290.13
2022-11-19T13:59:46.609Z,98288.09
2022-11-19T14:03:17.146Z,98282.06
2022-11-19T14:06:09.777Z,98285.75
2022-11-19T14:09:03.035Z,98288.41
2022-11-19T14:11:49.982Z,98293.34
2022-11-19T14:15:06.009Z,98295.03
2022-11-19T14:18:16.705Z,98293.88
2022-11-19T14:21:03.955Z,98298.81
2022-11-19T14:24:02.320Z,98294.97
2022-11-19T14:26:40.696Z,98295.72
2022-11-19T14:29:27.219Z,98303.47
2022-11-19T14:32:03.019Z,98309.91
2022-11-19T14:35:09.455Z,98312.19
2022-11-19T14:37:51.862Z,98306.84
2022-11-19T14:40:28.714Z,98310.03
2022-11-19T14:43:19.674Z,98310.38
2022-11-19T14:46:09.991Z,98319.88
2022-11-19T14:48:40.065Z,98317.47
2022-11-19T14:51:14.579Z,98316.75
2022-11-19T14:54:03.326Z,98317.03
2022-11-19T14:56:31.886Z,98320.06
2022-11-19T14:59:14.266Z,98313.81
2022-11-19T15:01:59.938Z,98306.41
2022-11-19T15:05:12.667Z,98308.22
2022-11-19T15:07:43.767Z,98307.56
2022-11-19T15:10:10.353Z,98313.63
2022-11-19T15:12:51.342Z,98317.94
2022-11-19T15:15:20.925Z,98322.88
2022-11-19T15:18:08.129Z,98323.75
2022-11-19T15:20:57.307Z,98316.06
2022-11-19T15:24:16.321Z,98322.25
2022-11-19T15:26:51.776Z,98322.25
2022-11-19T15:29:48.257Z,98320.50
2022-11-19T15:32:55.403Z,98319.00
2022-11-19T15:35:56.256Z,98321.56
2022-11-19T15:38:22.742Z,98324.41
2022-11-19T15:40:56.787Z,98329.13
2022-11-19T15:43:53.852Z,98325.13
2022-11-19T15:46:44.699Z,98320.72
2022-11-19T15:49:24.416Z,98319.09
2022-11-19T15:52:02.829Z,98321.91
2022-11-19T15:54:32.519Z,98319.75
2022-11-19T15:57:22.039Z,98318.81
2022-11-19T16:00:00.902Z,98326.97
2022-11-19T16:02:41.532Z,98333.50
2022-11-19T16:05:21.691Z,98334.47
2022-11-19T16:08:03.150Z,98347.41
2022-11-19T16:10:34.052Z,98347.84
2022-11-19T16:13:39.599Z,98330.41
2022-11-19T16:16:41.773Z,98332.13
2022-11-19T16:19:08.332Z,98333.00
2022-11-19T16:21:38.595Z,98331.22
2022-11-19T16:24:31.475Z,98329.97
2022-11-19T16:26:59.440Z,98326.75
2022-11-19T16:29:26.948Z,98335.63
2022-11-19T16:31:57.851Z,98339.00
2022-11-19T16:34:29.110Z,98335.13
2022-11-19T16:36:56.087Z,98333.75
2022-11-19T16:39:27.879Z,98340.16
2022-11-19T16:42:16.138Z,98336.59
2022-11-19T16:44:56.682Z,98341.88
2022-11-19T16:47:31.542Z,98355.03
2022-11-19T16:50:25.132Z,98346.72
2022-11-19T16:52:51.720Z,98336.72
2022-11-19T16:55:18.218Z,98338.56
2022-11-19T16:57:50.641Z,98328.78
2022-11-19T17:00:21.859Z,98339.97
2022-11-19T17:02:50.695Z,98342.06
2022-11-19T17:05:22.026Z,98332.53
2022-11-19T17:07:52.689Z,98329.06
2022-11-19T17:10:23.052Z,98335.53
2022-11-19T17:12:52.437Z,98338.78
2022-11-19T17:15:44.368Z,98337.53
2022-11-19T17:18:20.074Z,98341.78
2022-11-19T17:21:02.714Z,98344.78
2022-11-19T17:23:37.019Z,98348.25
2022-11-19T17:26:10.578Z,98346.19
2022-11-19T17:28:45.418Z,98345.66
2022-11-19T17:31:23.181Z,98352.41
2022-11-19T17:34:12.216Z,98350.66
2022-11-19T17:36:39.770Z,98355.75
2022-11-19T17:39:11.647Z,98354.44
2022-11-19T17:41:58.446Z,98353.84
2022-11-19T17:44:40.041Z,98353.47
2022-11-19T17:47:21.706Z,98354.09
2022-11-19T17:49:50.094Z,98353.72
2022-11-19T17:52:26.250Z,98351.91
2022-11-19T17:54:57.195Z,98350.94
2022-11-19T17:57:24.014Z,98355.97
2022-11-19T17:59:50.586Z,98362.53
2022-11-19T18:02:19.939Z,98367.19
2022-11-19T18:04:47.727Z,98367.59
2022-11-19T18:07:14.959Z,98362.50
2022-11-19T18:09:41.867Z,98363.09
2022-11-19T18:12:18.578Z,98369.44
2022-11-19T18:14:45.903Z,98372.53
2022-11-19T18:17:14.442Z,98373.59
2022-11-19T18:19:41.810Z,98371.91
2022-11-19T18:22:18.096Z,98376.44
2022-11-19T18:24:47.981Z,98376.53
2022-11-19T18:27:15.658Z,98367.88
2022-11-19T18:29:42.252Z,98373.34
2022-11-19T18:32:12.063Z,98387.97
2022-11-19T18:34:40.687Z,98378.63
2022-11-19T18:37:07.247Z,98398.06
2022-11-19T18:39:33.840Z,98399.88
2022-11-19T18:42:00.499Z,98410.75
2022-11-19T18:44:33.332Z,98398.81
2022-11-19T18:47:08.127Z,98393.63
2022-11-19T18:49:34.930Z,98393.28
2022-11-19T18:52:07.753Z,98382.91
2022-11-19T18:54:34.584Z,98381.88
2022-11-19T18:57:01.394Z,98384.03
2022-11-19T18:59:29.735Z,98390.75
2022-11-19T19:01:56.802Z,98392.63
2022-11-19T19:04:24.029Z,98389.69
2022-11-19T19:06:51.019Z,98391.91
2022-11-19T19:09:21.343Z,98396.19
2022-11-19T19:12:13.814Z,98383.31
2022-11-19T19:14:45.646Z,98397.53
2022-11-19T19:17:13.158Z,98387.59
2022-11-19T19:19:40.138Z,98385.34
2022-11-19T19:22:07.649Z,98393.38
2022-11-19T19:24:34.559Z,98395.09
2022-11-19T19:27:02.042Z,98388.09
2022-11-19T19:29:28.895Z,98403.00
2022-11-19T19:31:55.579Z,98391.91
2022-11-19T19:34:22.311Z,98390.28
2022-11-19T19:36:52.973Z,98395.09
2022-11-19T19:39:20.008Z,98391.19
2022-11-19T19:41:49.589Z,98404.34
2022-11-19T19:44:16.296Z,98403.50
2022-11-19T19:46:43.002Z,98402.13
2022-11-19T19:49:09.556Z,98408.03
2022-11-19T19:51:36.338Z,98396.03
2022-11-19T19:54:03.101Z,98399.72
2022-11-19T19:56:32.047Z,98397.41
2022-11-19T19:59:01.545Z,98401.94
2022-11-19T20:01:31.967Z,98410.31
2022-11-19T20:04:07.826Z,98403.28
2022-11-19T20:06:37.973Z,98400.47
2022-11-19T20:09:08.859Z,98401.09
2022-11-19T20:11:36.456Z,98395.44
2022-11-19T20:14:03.144Z,98400.16
2022-11-19T20:16:32.441Z,98406.91
2022-11-19T20:19:00.385Z,98405.78
2022-11-19T20:21:35.968Z,98398.88
2022-11-19T20:24:08.727Z,98399.69
2022-11-19T20:26:39.824Z,98395.78
2022-11-19T20:29:06.946Z,98395.69
2022-11-19T20:31:34.879Z,98392.06
2022-11-19T20:34:04.502Z,98393.75
2022-11-19T20:36:34.898Z,98393.47
2022-11-19T20:39:01.988Z,98391.72
2022-11-19T20:41:47.607Z,98401.50
2022-11-19T20:44:25.489Z,98396.00
2022-11-19T20:46:58.463Z,98400.59
2022-11-19T20:49:28.468Z,98402.19
2022-11-19T20:51:56.115Z,98408.44
2022-11-19T20:54:23.975Z,98411.00
2022-11-19T20:56:52.576Z,98408.00
2022-11-19T20:59:20.293Z,98403.31
2022-11-19T21:01:49.718Z,98405.53
2022-11-19T21:04:16.709Z,98400.47
2022-11-19T21:06:43.380Z,98402.59
2022-11-19T21:09:10.017Z,98398.94
2022-11-19T21:11:36.806Z,98401.16
2022-11-19T21:14:04.053Z,98399.41
2022-11-19T21:16:31.533Z,98402.22
2022-11-19T21:18:58.397Z,98402.22
2022-11-19T21:21:25.465Z,98398.53
2022-11-19T21:23:53.856Z,98399.53
2022-11-19T21:26:26.353Z,98410.00
2022-11-19T21:28:56.054Z,98408.94
2022-11-19T21:31:37.828Z,98407.09
2022-11-19T21:34:07.136Z,98407.19
2022-11-19T21:36:33.989Z,98403.63
2022-11-19T21:39:00.780Z,98404.38
2022-11-19T21:41:27.557Z,98400.81
2022-11-19T21:43:54.147Z,98403.31
2022-11-19T21:46:20.765Z,98408.44
2022-11-19T21:48:48.552Z,98409.06
2022-11-19T21:51:17.910Z,98408.28
2022-11-19T21:53:46.783Z,98399.81
2022-11-19T21:56:13.397Z,98403.22
2022-11-19T21:58:39.984Z,98403.16
2022-11-19T22:01:06.948Z,98398.03
2022-11-19T22:03:35.607Z,98401.88
2022-11-19T22:06:08.357Z,98407.06
2022-11-19T22:08:39.993Z,98395.63
2022-11-19T22:11:27.185Z,98390.94
2022-11-19T22:13:55.033Z,98390.09
2022-11-19T22:16:21.955Z,98385.34
2022-11-19T22:18:48.699Z,98386.38
2022-11-19T22:21:15.937Z,98385.59
2022-11-19T22:23:42.560Z,98383.63
2022-11-19T22:26:11.622Z,98373.25
2022-11-19T22:28:38.729Z,98380.44
2022-11-19T22:31:05.810Z,98379.41
2022-11-19T22:33:35.397Z,98377.88
2022-11-19T22:36:09.478Z,98375.44
2022-11-19T22:38:38.419Z,98372.97
2022-11-19T22:41:09.467Z,98376.31
2022-11-19T22:43:38.369Z,98377.50
2022-11-19T22:46:06.790Z,98383.56
2022-11-19T22:48:34.042Z,98373.44
2022-11-19T22:51:07.872Z,98369.50
2022-11-19T22:53:37.545Z,98371.19
2022-11-19T22:56:07.591Z,98367.75
2022-11-19T22:58:34.814Z,98371.44
2022-11-19T23:01:01.500Z,98365.09
2022-11-19T23:03:28.533Z,98367.88
2022-11-19T23:05:56.426Z,98367.34
2022-11-19T23:08:23.177Z,98369.13
2022-11-19T23:10:58.535Z,98353.09
2022-11-19T23:13:32.490Z,98345.03
2022-11-19T23:16:07.367Z,98348.97
2022-11-19T23:18:41.440Z,98354.38
2022-11-19T23:21:15.322Z,98353.13
2022-11-19T23:23:43.247Z,98351.25
2022-11-19T23:26:13.654Z,98341.25
2022-11-19T23:28:40.316Z,98354.63
2022-11-19T23:31:10.885Z,98351.16
2022-11-19T23:33:37.525Z,98351.75
2022-11-19T23:36:26.839Z,98353.50
2022-11-19T23:38:53.967Z,98347.94
2022-11-19T23:41:22.001Z,98348.22
2022-11-19T23:43:49.719Z,98350.22
2022-11-19T23:46:20.771Z,98345.50
2022-11-19T23:48:48.941Z,98352.63
2022-11-19T23:51:22.482Z,98347.09
2022-11-19T23:53:49.563Z,98343.84
2022-11-19T23:56:18.022Z,98344.50
2022-11-19T23:58:44.911Z,98343.03
